Time;durP1;ratioP1;P1;durP2;ratioP2;P2;SDS_P1;SDS_P2;PMS_P1;PMS_P2;Temp;Humidity;BMP_temperature;BMP_pressure;BME280_temperature;BME280_humidity;BME280_pressure;Samples;Min_cycle;Max_cycle;Signal;HPM_P1;HPM_P2
2023/09/06 00:00:52;;;;;;;7.07;2.95;;;;;;;-142.57;52.44;115900.28;5078299;28;20044;-84
2023/09/06 00:03:18;;;;;;;6.20;2.75;;;;;;;-142.57;52.47;115900.28;5078331;28;20044;-85
2023/09/06 00:05:44;;;;;;;10.68;2.88;;;;;;;-142.57;52.54;115900.28;5059993;28;20398;-85
2023/09/06 00:08:14;;;;;;;5.72;3.03;;;;;;;-142.57;52.44;115900.28;5077988;28;20043;-82
2023/09/06 00:10:43;;;;;;;5.57;3.30;;;;;;;-142.57;51.83;115900.28;5078549;28;20052;-84
2023/09/06 00:13:10;;;;;;;5.88;3.28;;;;;;;-142.57;51.32;115900.28;5077722;28;20036;-82
2023/09/06 00:15:36;;;;;;;4.63;3.03;;;;;;;-142.57;51.42;115900.28;5076997;28;20096;-86
2023/09/06 00:18:08;;;;;;;5.63;2.60;;;;;;;-142.57;51.38;115900.28;5077862;28;20132;-87
2023/09/06 00:20:38;;;;;;;3.90;2.80;;;;;;;-142.57;52.71;115900.28;5059765;28;20040;-84
2023/09/06 00:23:06;;;;;;;12.20;2.97;;;;;;;-142.57;52.83;115900.28;5078036;28;20491;-83
2023/09/06 00:25:32;;;;;;;4.20;2.85;;;;;;;-142.57;52.87;115900.28;5060793;28;20536;-86
2023/09/06 00:28:00;;;;;;;6.53;3.20;;;;;;;-142.57;52.75;115900.28;5078522;28;20033;-84
2023/09/06 00:30:26;;;;;;;5.47;2.92;;;;;;;-142.57;52.76;115900.28;5046429;28;20102;-82
2023/09/06 00:32:54;;;;;;;4.00;2.30;;;;;;;-142.57;53.54;115900.28;5066329;28;20481;-82
2023/09/06 00:35:23;;;;;;;3.90;2.67;;;;;;;-142.57;53.09;115900.28;5081098;28;20036;-85
2023/09/06 00:37:52;;;;;;;6.65;2.70;;;;;;;-142.57;52.37;115900.28;5082556;28;20502;-85
2023/09/06 00:40:19;;;;;;;6.60;3.05;;;;;;;-142.57;52.55;115900.28;5064753;28;20399;-86
2023/09/06 00:43:05;;;;;;;7.35;3.10;;;;;;;-142.57;52.47;115900.28;5082526;28;20040;-84
2023/09/06 00:45:41;;;;;;;4.60;2.97;;;;;;;-142.57;53.22;115900.28;5050103;28;20118;-85
2023/09/06 00:48:22;;;;;;;4.78;2.88;;;;;;;-142.57;53.09;115900.28;5084456;28;20115;-83
2023/09/06 00:50:52;;;;;;;6.13;3.10;;;;;;;-142.57;52.76;115900.28;5076762;28;20119;-84
2023/09/06 00:53:21;;;;;;;3.70;2.72;;;;;;;-142.57;52.67;115900.28;5076006;28;20033;-82
2023/09/06 00:55:48;;;;;;;6.30;3.05;;;;;;;-142.57;52.87;115900.28;5076667;28;20102;-80
2023/09/06 00:58:15;;;;;;;7.20;2.67;;;;;;;-142.57;53.18;115900.28;5077058;28;20036;-81
2023/09/06 01:00:45;;;;;;;6.90;3.20;;;;;;;-142.57;53.14;115900.28;5076692;28;20028;-81
2023/09/06 01:03:12;;;;;;;5.88;2.97;;;;;;;-142.57;53.43;115900.28;5075154;28;20021;-81
2023/09/06 01:05:46;;;;;;;7.97;3.10;;;;;;;-142.57;53.42;115900.28;5059000;28;20431;-80
2023/09/06 01:08:20;;;;;;;8.27;2.95;;;;;;;-142.57;53.34;115900.28;5076825;28;20036;-83
2023/09/06 01:10:46;;;;;;;6.78;2.50;;;;;;;-142.57;53.64;115900.28;5076891;28;20505;-83
2023/09/06 01:13:12;;;;;;;8.10;3.08;;;;;;;-142.57;54.69;115900.28;5060075;28;20028;-83
2023/09/06 01:15:44;;;;;;;7.07;3.00;;;;;;;-142.57;54.04;115900.28;5077214;28;20043;-81
2023/09/06 01:18:12;;;;;;;6.55;2.70;;;;;;;-142.57;53.45;115900.28;5077077;28;20060;-80
2023/09/06 01:20:51;;;;;;;6.22;3.17;;;;;;;-142.57;53.88;115900.28;5076476;28;20398;-82
2023/09/06 01:23:34;;;;;;;7.00;2.92;;;;;;;-142.57;54.52;115900.28;5057702;28;20504;-81
2023/09/06 01:26:00;;;;;;;7.53;3.42;;;;;;;-142.57;54.25;115900.28;5058438;28;20075;-83
2023/09/06 01:28:27;;;;;;;7.97;2.90;;;;;;;-142.57;53.98;115900.28;5075387;28;20495;-85
2023/09/06 01:30:56;;;;;;;6.85;3.00;;;;;;;-142.57;54.67;115900.28;5077154;28;20048;-82
2023/09/06 01:33:22;;;;;;;8.55;3.28;;;;;;;-142.57;55.44;115900.28;5075850;28;20036;-83
2023/09/06 01:35:49;;;;;;;3.70;2.53;;;;;;;-142.57;56.13;115900.28;5041259;28;20028;-87
2023/09/06 01:38:15;;;;;;;5.97;2.53;;;;;;;-142.57;56.43;115900.28;5076375;28;20410;-83
2023/09/06 01:40:43;;;;;;;5.60;3.05;;;;;;;-142.57;57.57;115900.28;5076438;28;20059;-83
2023/09/06 01:43:12;;;;;;;7.43;2.90;;;;;;;-142.57;58.64;115900.28;5076421;28;20540;-84
2023/09/06 01:45:45;;;;;;;4.05;3.00;;;;;;;-142.57;58.90;115900.28;5058808;28;20112;-84
2023/09/06 01:48:11;;;;;;;;;;;;;;;-142.57;58.23;115900.28;5077484;28;20025;-85
2023/09/06 01:50:37;;;;;;;6.82;3.00;;;;;;;-142.57;57.38;115900.28;5077131;28;20427;-83
2023/09/06 01:53:03;;;;;;;4.78;2.78;;;;;;;-142.57;57.43;115900.28;5077942;28;20048;-85
2023/09/06 01:55:28;;;;;;;5.30;2.80;;;;;;;-142.57;57.67;115900.28;5060036;28;20048;-84
2023/09/06 01:57:54;;;;;;;6.18;3.22;;;;;;;-142.57;57.99;115900.28;5056973;28;20642;-81
2023/09/06 02:02:48;;;;;;;4.80;2.92;;;;;;;-142.57;58.96;115900.28;5075760;28;20036;-82
2023/09/06 02:05:16;;;;;;;8.27;3.50;;;;;;;-142.57;60.52;115900.28;5075633;28;20182;-83
2023/09/06 02:07:44;;;;;;;8.80;4.05;;;;;;;-142.57;60.49;115900.28;5075476;28;20143;-83
2023/09/06 02:10:10;;;;;;;7.25;3.35;;;;;;;-142.57;61.63;115900.28;5057448;28;20111;-84
2023/09/06 02:12:35;;;;;;;11.32;3.58;;;;;;;-142.57;62.12;115900.28;5057231;28;20115;-85
2023/09/06 02:15:05;;;;;;;5.40;2.88;;;;;;;-142.57;62.56;115900.28;5056554;28;20335;-83
2023/09/06 02:17:30;;;;;;;9.63;3.40;;;;;;;-142.57;62.56;115900.28;5040256;28;20501;-84
2023/09/06 02:19:56;;;;;;;6.85;3.40;;;;;;;-142.57;62.89;115900.28;5075917;28;20024;-85
2023/09/06 02:22:21;;;;;;;10.38;3.22;;;;;;;-142.57;61.91;115900.28;5076002;28;20116;-85
2023/09/06 02:24:47;;;;;;;5.85;3.20;;;;;;;-142.57;60.86;115900.28;5076132;28;20036;-80
2023/09/06 02:27:13;;;;;;;8.55;3.28;;;;;;;-142.57;61.56;115900.28;5074551;28;20388;-82
2023/09/06 02:29:40;;;;;;;7.50;3.72;;;;;;;-142.57;60.97;115900.28;5074501;28;20040;-82
2023/09/06 02:32:06;;;;;;;5.35;2.95;;;;;;;-142.57;60.80;115900.28;5056489;28;20089;-84
2023/09/06 02:34:34;;;;;;;5.38;3.22;;;;;;;-142.57;62.29;115900.28;5073749;28;20126;-80
2023/09/06 02:36:59;;;;;;;5.63;3.33;;;;;;;-142.57;62.47;115900.28;5056398;28;20391;-81
2023/09/06 02:39:25;;;;;;;6.82;3.22;;;;;;;-142.57;62.33;115900.28;5074352;28;20074;-82
2023/09/06 02:41:52;;;;;;;6.38;3.47;;;;;;;-142.57;62.36;115900.28;5074816;28;20040;-84
2023/09/06 02:44:17;;;;;;;8.23;3.55;;;;;;;-142.57;62.84;115900.28;5056329;28;20024;-80
2023/09/06 02:46:43;;;;;;;6.50;3.22;;;;;;;-142.57;63.06;115900.28;5073652;28;20119;-84
2023/09/06 02:49:13;;;;;;;5.28;3.47;;;;;;;-142.57;62.60;115900.28;5040506;28;20037;-86
2023/09/06 02:51:42;;;;;;;8.68;3.15;;;;;;;-142.57;63.18;115900.28;5040675;28;20040;-83
2023/09/06 02:54:12;;;;;;;8.80;3.20;;;;;;;-142.57;62.79;115900.28;5040460;28;20037;-82
2023/09/06 02:56:37;;;;;;;8.43;3.90;;;;;;;-142.57;63.54;115900.28;5062836;28;20052;-83
2023/09/06 02:59:07;;;;;;;4.80;3.40;;;;;;;-142.57;64.54;115900.28;5076290;28;20051;-83
2023/09/06 03:01:38;;;;;;;8.05;3.80;;;;;;;-142.57;66.28;115900.28;5075899;28;20039;-82
2023/09/06 03:04:06;;;;;;;5.88;3.30;;;;;;;-142.57;67.92;115900.28;5058097;28;20040;-83
2023/09/06 03:06:33;;;;;;;7.47;3.72;;;;;;;-142.57;68.43;115900.28;5076404;28;20115;-82
2023/09/06 03:09:00;;;;;;;6.50;3.25;;;;;;;-142.57;69.43;115900.28;5057459;28;20027;-79
2023/09/06 03:11:26;;;;;;;9.40;3.53;;;;;;;-142.57;69.19;115900.28;5075904;28;20041;-78
2023/09/06 03:13:55;;;;;;;6.53;3.10;;;;;;;-142.57;68.64;115900.28;5075770;28;20078;-81
2023/09/06 03:16:22;;;;;;;6.57;3.08;;;;;;;-142.57;67.04;115900.28;5041850;28;20032;-83
2023/09/06 03:18:49;;;;;;;8.60;3.70;;;;;;;-142.57;67.14;115900.28;5058833;28;20025;-82
2023/09/06 03:21:18;;;;;;;9.10;3.40;;;;;;;-142.57;66.68;115900.28;5058462;28;20078;-79
2023/09/06 03:23:45;;;;;;;6.18;3.60;;;;;;;-142.57;66.58;115900.28;5058142;28;20017;-81
2023/09/06 03:26:11;;;;;;;7.68;3.20;;;;;;;-142.57;65.57;115900.28;5057420;28;20123;-83
2023/09/06 03:28:41;;;;;;;4.78;2.90;;;;;;;-142.57;66.65;115900.28;5075793;28;20048;-80
2023/09/06 03:31:09;;;;;;;7.30;3.60;;;;;;;-142.57;66.10;115900.28;5058037;28;20044;-81
2023/09/06 03:33:35;;;;;;;6.30;3.20;;;;;;;-142.57;65.22;115900.28;5057525;28;20558;-80
2023/09/06 03:36:07;;;;;;;7.35;3.50;;;;;;;-142.57;66.21;115900.28;5056826;28;20044;-79
2023/09/06 03:38:34;;;;;;;;;;;;;;;-142.57;65.68;115900.28;5057721;28;20067;-87
2023/09/06 03:41:02;;;;;;;6.25;3.13;;;;;;;-142.57;65.47;115900.28;5057314;28;20012;-83
2023/09/06 03:43:32;;;;;;;10.52;3.25;;;;;;;-142.57;65.53;115900.28;5075371;28;20111;-81
2023/09/06 03:46:04;;;;;;;7.35;3.35;;;;;;;-142.57;65.56;115900.28;5056739;28;20032;-86
2023/09/06 03:48:30;;;;;;;7.35;3.25;;;;;;;-142.57;65.26;115900.28;5057387;28;20044;-82
2023/09/06 03:50:58;;;;;;;8.07;3.05;;;;;;;-142.57;65.43;115900.28;5075334;28;20047;-79
2023/09/06 03:53:27;;;;;;;7.55;3.42;;;;;;;-142.57;64.79;115900.28;5056810;28;20032;-83
2023/09/06 03:55:57;;;;;;;6.22;3.15;;;;;;;-142.57;65.35;115900.28;5074436;28;20464;-80
2023/09/06 03:58:30;;;;;;;7.22;3.53;;;;;;;-142.57;65.53;115900.28;5055819;28;20041;-84
2023/09/06 04:00:56;;;;;;;6.07;2.97;;;;;;;-142.57;65.46;115900.28;5056634;28;20051;-85
2023/09/06 04:03:28;;;;;;;5.55;3.10;;;;;;;-142.57;65.04;115900.28;5057328;28;20108;-86
2023/09/06 04:05:55;;;;;;;5.28;3.28;;;;;;;-142.57;65.71;115900.28;5057043;28;20151;-85
2023/09/06 04:08:28;;;;;;;12.18;3.88;;;;;;;-142.57;66.28;115900.28;5058185;28;20119;-91
2023/09/06 04:10:54;;;;;;;5.05;3.15;;;;;;;-142.57;66.55;115900.28;5059644;28;20072;-80
2023/09/06 04:13:20;;;;;;;9.15;3.53;;;;;;;-142.57;64.96;115900.28;5044439;28;20028;-79
2023/09/06 04:15:46;;;;;;;7.20;3.42;;;;;;;-142.57;64.89;115900.28;5058374;28;20039;-87
2023/09/06 04:18:12;;;;;;;12.20;3.53;;;;;;;-142.57;65.41;115900.28;5056890;28;20044;-84
2023/09/06 04:20:46;;;;;;;10.90;4.38;;;;;;;-142.57;65.90;115900.28;5079048;28;20475;-81
2023/09/06 04:23:13;;;;;;;16.13;4.25;;;;;;;-142.57;66.48;115900.28;5064918;28;20029;-82
2023/09/06 04:25:41;;;;;;;7.45;3.78;;;;;;;-142.57;67.00;115900.28;5062493;28;20101;-83
2023/09/06 04:28:11;;;;;;;12.77;4.57;;;;;;;-142.57;67.83;115900.28;5063594;28;20033;-81
2023/09/06 04:30:40;;;;;;;6.43;3.65;;;;;;;-142.57;69.08;115900.28;5080786;28;20040;-87
2023/09/06 04:33:15;;;;;;;14.85;3.78;;;;;;;-142.57;69.53;115900.28;5040282;28;20036;-77
2023/09/06 04:36:03;;;;;;;6.85;3.42;;;;;;;-142.57;69.59;115900.28;5073375;28;20040;-80
2023/09/06 04:38:31;;;;;;;12.50;3.88;;;;;;;-142.57;69.93;115900.28;5055763;28;20040;-83
2023/09/06 04:40:59;;;;;;;8.68;3.78;;;;;;;-142.57;70.98;115900.28;5074157;28;20041;-85
2023/09/06 04:43:28;;;;;;;6.25;3.40;;;;;;;-142.57;71.76;115900.28;5056205;28;20043;-85
2023/09/06 04:45:54;;;;;;;6.57;3.40;;;;;;;-142.57;70.98;115900.28;5040132;28;20064;-80
2023/09/06 04:48:23;;;;;;;8.43;3.53;;;;;;;-142.57;71.97;115900.28;5055596;28;20035;-84
2023/09/06 04:50:56;;;;;;;7.88;3.70;;;;;;;-142.57;71.36;115900.28;5074318;28;20059;-82
2023/09/06 04:53:22;;;;;;;8.55;3.83;;;;;;;-142.57;70.29;115900.28;5056424;28;20039;-80
2023/09/06 04:55:52;;;;;;;10.07;3.65;;;;;;;-142.57;69.68;115900.28;5056073;28;20143;-80
2023/09/06 04:58:22;;;;;;;11.57;3.80;;;;;;;-142.57;68.37;115900.28;5055791;28;20524;-80
2023/09/06 05:00:48;;;;;;;10.75;3.58;;;;;;;-142.57;67.59;115900.28;5074252;28;20032;-80
2023/09/06 05:03:17;;;;;;;11.10;3.70;;;;;;;-142.57;67.19;115900.28;5059202;28;20024;-81
2023/09/06 05:05:47;;;;;;;9.85;3.78;;;;;;;-142.57;67.73;115900.28;5058455;28;20029;-81
2023/09/06 05:08:14;;;;;;;9.30;4.55;;;;;;;-142.57;66.86;115900.28;5057744;28;20119;-83
2023/09/06 05:10:40;;;;;;;7.57;4.75;;;;;;;-142.57;67.14;115900.28;5057860;28;20044;-84
2023/09/06 05:13:11;;;;;;;4.32;3.58;;;;;;;-142.57;64.56;115900.28;5056805;28;20069;-81
2023/09/06 05:15:40;;;;;;;9.35;4.10;;;;;;;-142.57;58.78;115900.28;5055146;28;20549;-80
2023/09/06 05:18:08;;;;;;;10.75;3.92;;;;;;;-142.57;61.66;115900.28;5055158;28;20032;-81
2023/09/06 05:20:37;;;;;;;6.43;3.60;;;;;;;-142.57;62.20;115900.28;5054663;28;20039;-81
2023/09/06 05:23:09;;;;;;;9.68;3.25;;;;;;;-142.57;59.44;115900.28;5055232;28;20033;-82
2023/09/06 05:25:36;;;;;;;8.75;3.58;;;;;;;-142.57;58.91;115900.28;5073042;28;20044;-84
2023/09/06 05:28:04;;;;;;;7.38;3.53;;;;;;;-142.57;59.39;115900.28;5055207;28;20066;-78
2023/09/06 05:30:31;;;;;;;7.05;3.17;;;;;;;-142.57;58.66;115900.28;5054647;28;20882;-81
2023/09/06 05:32:58;;;;;;;8.13;3.72;;;;;;;-142.57;57.70;115900.28;5054666;28;20040;-80
2023/09/06 05:35:25;;;;;;;11.57;4.03;;;;;;;-142.57;55.81;115900.28;5055424;28;20137;-83
2023/09/06 05:37:52;;;;;;;15.25;3.92;;;;;;;-142.57;54.04;115900.28;5054704;28;20035;-83
2023/09/06 05:40:22;;;;;;;16.10;3.22;;;;;;;-142.57;54.62;115900.28;5054101;28;20024;-80
2023/09/06 05:42:51;;;;;;;7.25;3.45;;;;;;;-142.57;51.08;115900.28;5054432;28;20067;-87
2023/09/06 05:45:19;;;;;;;15.30;3.58;;;;;;;-142.57;48.99;115900.28;5054371;28;20039;-83
2023/09/06 05:47:45;;;;;;;14.43;3.47;;;;;;;-142.57;50.26;115900.28;5055177;28;20036;-83
2023/09/06 05:50:15;;;;;;;12.02;3.50;;;;;;;-142.57;49.75;115900.28;5056242;28;20025;-84
2023/09/06 05:52:40;;;;;;;14.48;4.20;;;;;;;-142.57;50.12;115900.28;5054876;28;20084;-81
2023/09/06 05:55:06;;;;;;;15.88;4.43;;;;;;;-142.57;49.73;115900.28;5073142;28;20115;-86
2023/09/06 05:57:33;;;;;;;22.80;4.43;;;;;;;-142.57;47.34;115900.28;5055533;28;20029;-84
2023/09/06 05:59:59;;;;;;;12.65;4.20;;;;;;;-142.57;47.32;115900.28;5072937;28;20479;-82
2023/09/06 06:02:26;;;;;;;11.30;4.80;;;;;;;-142.57;45.06;115900.28;5055150;28;20051;-81
2023/09/06 06:04:55;;;;;;;18.55;5.13;;;;;;;-142.57;45.90;115900.28;5054651;28;20037;-82
2023/09/06 06:07:21;;;;;;;13.65;4.32;;;;;;;-142.57;45.61;115900.28;5054800;28;20036;-81
2023/09/06 06:09:48;;;;;;;9.30;4.53;;;;;;;-142.57;44.18;115900.28;5056431;28;20504;-83
2023/09/06 06:12:14;;;;;;;9.80;3.83;;;;;;;-142.57;42.01;115900.28;5075274;28;20076;-83
2023/09/06 06:14:43;;;;;;;10.73;3.97;;;;;;;-142.57;41.87;115900.28;5073108;28;20094;-82
2023/09/06 06:17:09;;;;;;;11.63;4.80;;;;;;;-142.57;42.52;115900.28;5064900;28;20471;-85
2023/09/06 06:19:35;;;;;;;11.65;4.18;;;;;;;-142.57;42.59;115900.28;5055212;28;20133;-86
2023/09/06 06:22:02;;;;;;;8.48;4.07;;;;;;;-142.57;42.56;115900.28;5074629;28;20036;-85
2023/09/06 06:24:29;;;;;;;13.98;4.07;;;;;;;-142.57;43.14;115900.28;5076311;28;20037;-85
2023/09/06 06:26:55;;;;;;;16.40;4.30;;;;;;;-142.57;43.20;115900.28;5059201;28;20027;-86
2023/09/06 06:29:20;;;;;;;10.50;3.70;;;;;;;-142.57;42.74;115900.28;5076575;28;20033;-84
2023/09/06 06:31:46;;;;;;;10.52;3.60;;;;;;;-142.57;42.09;115900.28;5076571;28;20431;-86
2023/09/06 06:34:14;;;;;;;12.85;3.78;;;;;;;-142.57;41.67;115900.28;5075685;28;20047;-84
2023/09/06 06:36:40;;;;;;;19.63;4.57;;;;;;;-142.57;39.78;115900.28;5053917;28;20037;-86
2023/09/06 06:39:06;;;;;;;16.08;3.70;;;;;;;-142.57;39.48;115900.28;5058597;28;20356;-88
2023/09/06 06:41:57;;;;;;;11.35;3.47;;;;;;;-142.57;39.84;115900.28;5076407;28;20074;-88
2023/09/06 06:44:31;;;;;;;12.98;3.67;;;;;;;-142.57;39.75;115900.28;5039274;28;20377;-85
2023/09/06 06:46:56;;;;;;;12.48;4.05;;;;;;;-142.57;39.66;115900.28;5070627;28;20039;-85
2023/09/06 06:49:23;;;;;;;19.85;4.25;;;;;;;-142.57;39.71;115900.28;5058740;28;20033;-86
2023/09/06 06:51:48;;;;;;;16.20;4.22;;;;;;;-142.57;39.87;115900.28;5076605;28;20021;-83
2023/09/06 06:54:14;;;;;;;17.90;4.57;;;;;;;-142.57;38.90;115900.28;5076646;28;20128;-85
2023/09/06 06:56:40;;;;;;;7.70;4.13;;;;;;;-142.57;38.75;115900.28;5075909;28;20032;-87
2023/09/06 06:59:09;;;;;;;10.88;3.47;;;;;;;-142.57;36.50;115900.28;5076134;28;20041;-84
2023/09/06 07:01:35;;;;;;;15.52;3.97;;;;;;;-142.57;36.43;115900.28;5076640;28;20077;-85
2023/09/06 07:04:04;;;;;;;10.98;3.53;;;;;;;-142.57;36.96;115900.28;5075800;28;20029;-86
2023/09/06 07:06:30;;;;;;;12.20;3.92;;;;;;;-142.57;37.40;115900.28;5057961;28;20041;-86
2023/09/06 07:08:57;;;;;;;18.42;4.00;;;;;;;-142.57;37.87;115900.28;5074731;28;20181;-84
2023/09/06 07:11:23;;;;;;;13.75;3.63;;;;;;;-142.57;38.58;115900.28;5075815;28;20075;-86
2023/09/06 07:13:50;;;;;;;11.38;3.95;;;;;;;-142.57;37.00;115900.28;5058868;28;20094;-87
2023/09/06 07:16:17;;;;;;;13.88;4.38;;;;;;;-142.57;36.02;115900.28;5075408;28;20107;-86
2023/09/06 07:18:44;;;;;;;14.52;3.92;;;;;;;-142.57;34.90;115900.28;5075184;28;20028;-83
2023/09/06 07:21:09;;;;;;;28.33;4.43;;;;;;;-142.57;35.58;115900.28;5075603;28;20032;-82
2023/09/06 07:23:35;;;;;;;9.93;4.22;;;;;;;-142.57;36.08;115900.28;5075213;28;20336;-84
2023/09/06 07:26:00;;;;;;;14.95;4.10;;;;;;;-142.57;36.22;115900.28;5075444;28;20036;-85
2023/09/06 07:28:37;;;;;;;13.25;4.43;;;;;;;-142.57;36.41;115900.28;5075190;28;20406;-81
2023/09/06 07:31:03;;;;;;;23.50;4.85;;;;;;;-142.57;37.77;115900.28;5040186;28;20040;-88
2023/09/06 07:33:28;;;;;;;15.05;4.18;;;;;;;-142.57;37.46;115900.28;5074282;28;20384;-84
2023/09/06 07:35:54;;;;;;;13.63;4.70;;;;;;;-142.57;36.24;115900.28;5074919;28;20024;-85
2023/09/06 07:38:19;;;;;;;32.78;4.85;;;;;;;-142.57;36.05;115900.28;5076426;28;20039;-86
2023/09/06 07:40:59;;;;;;;21.88;4.60;;;;;;;-142.57;35.16;115900.28;5076235;28;20402;-88
2023/09/06 07:43:26;;;;;;;11.80;3.90;;;;;;;-142.57;35.09;115900.28;5057929;28;20067;-87
2023/09/06 07:45:52;;;;;;;18.48;4.53;;;;;;;-142.57;33.87;115900.28;5059587;28;20036;-84
2023/09/06 07:48:18;;;;;;;8.95;4.45;;;;;;;-142.57;32.87;115900.28;5069670;28;20040;-83
2023/09/06 07:50:43;;;;;;;15.57;4.75;;;;;;;-142.57;32.59;115900.28;5080739;28;20475;-79
2023/09/06 07:53:09;;;;;;;12.77;4.68;;;;;;;-142.57;33.10;115900.28;5081518;28;20029;-83
2023/09/06 07:55:34;;;;;;;11.77;5.35;;;;;;;-142.57;31.78;115900.28;5079501;28;20031;-84
2023/09/06 07:58:00;;;;;;;13.60;4.43;;;;;;;-142.57;31.72;115900.28;5077324;28;20124;-85
2023/09/06 08:00:26;;;;;;;13.98;4.35;;;;;;;-142.57;33.42;115900.28;5038195;28;20048;-79
2023/09/06 08:02:54;;;;;;;12.27;5.03;;;;;;;-142.57;33.54;115900.28;5074370;28;20543;-84
2023/09/06 08:05:19;;;;;;;8.35;3.72;;;;;;;-142.57;32.29;115900.28;5072983;28;20029;-83
2023/09/06 08:07:45;;;;;;;15.30;4.07;;;;;;;-142.57;32.22;115900.28;5074293;28;20093;-81
2023/09/06 08:10:12;;;;;;;10.45;5.55;;;;;;;-142.57;32.83;115900.28;5077020;28;20029;-89
2023/09/06 08:12:38;;;;;;;20.75;4.25;;;;;;;-142.57;32.77;115900.28;5075594;28;20036;-83
2023/09/06 08:15:04;;;;;;;8.07;5.00;;;;;;;-142.57;31.72;115900.28;5076143;28;20035;-82
2023/09/06 08:17:30;;;;;;;21.15;4.70;;;;;;;-142.57;31.58;115900.28;5077465;28;20032;-83
2023/09/06 08:19:55;;;;;;;10.90;4.30;;;;;;;-142.57;31.19;115900.28;5058041;28;20051;-86
2023/09/06 08:22:21;;;;;;;8.55;4.50;;;;;;;-142.57;31.82;115900.28;5076922;28;20383;-90
2023/09/06 08:24:46;;;;;;;8.50;4.55;;;;;;;-142.57;31.06;115900.28;5072675;28;20390;-87
2023/09/06 08:27:12;;;;;;;8.43;4.47;;;;;;;-142.57;30.22;115900.28;5074071;28;20050;-81
2023/09/06 08:29:37;;;;;;;11.25;4.63;;;;;;;-142.57;31.31;115900.28;5073332;28;20041;-84
2023/09/06 08:32:03;;;;;;;11.40;4.18;;;;;;;-142.57;31.83;115900.28;5071005;28;20027;-83
2023/09/06 08:34:29;;;;;;;13.52;4.47;;;;;;;-142.57;31.36;115900.28;5073118;28;20037;-81
2023/09/06 08:36:56;;;;;;;10.82;5.10;;;;;;;-142.57;31.97;115900.28;5073553;28;20356;-83
2023/09/06 08:39:21;;;;;;;8.38;4.53;;;;;;;-142.57;32.37;115900.28;5087868;22;20060;-84
2023/09/06 08:41:53;;;;;;;9.77;3.88;;;;;;;-142.57;31.72;115900.28;5055951;28;20029;-86
2023/09/06 08:44:20;;;;;;;14.23;4.38;;;;;;;-142.57;32.40;115900.28;5035290;28;20086;-85
2023/09/06 08:46:46;;;;;;;10.10;4.63;;;;;;;-142.57;32.10;115900.28;5074382;28;20029;-86
2023/09/06 08:49:13;;;;;;;12.25;4.88;;;;;;;-142.57;32.35;115900.28;5071324;28;20034;-83
2023/09/06 08:51:42;;;;;;;10.27;4.53;;;;;;;-142.57;31.40;115900.28;5074782;28;20033;-84
2023/09/06 08:54:09;;;;;;;11.20;4.25;;;;;;;-142.57;31.83;115900.28;5055143;28;20059;-82
2023/09/06 08:56:35;;;;;;;8.50;3.40;;;;;;;-142.57;31.80;115900.28;5092065;28;20017;-85
2023/09/06 08:59:00;;;;;;;10.32;3.20;;;;;;;-142.57;32.86;115900.28;5094808;28;20020;-85
2023/09/06 09:01:28;;;;;;;5.47;3.05;;;;;;;-142.57;32.42;115900.28;5098344;28;20070;-85
2023/09/06 09:03:53;;;;;;;15.32;4.50;;;;;;;-142.57;32.00;115900.28;5098461;28;20041;-83
2023/09/06 09:06:22;;;;;;;8.75;3.17;;;;;;;-142.57;32.16;115900.28;5093394;28;20032;-84
2023/09/06 09:08:47;;;;;;;18.65;3.50;;;;;;;-142.57;32.32;115900.28;5083810;28;20041;-82
2023/09/06 09:11:21;;;;;;;9.20;2.97;;;;;;;-142.57;32.77;115900.28;5084260;28;20039;-83
2023/09/06 09:13:47;;;;;;;11.23;3.33;;;;;;;-142.57;32.62;115900.28;5082009;28;20041;-83
2023/09/06 09:16:16;;;;;;;13.32;3.20;;;;;;;-142.57;32.64;115900.28;5081682;28;20024;-80
2023/09/06 09:18:43;;;;;;;7.88;3.38;;;;;;;-142.57;32.58;115900.28;5080469;28;20096;-87
2023/09/06 09:21:11;;;;;;;5.10;2.85;;;;;;;-142.57;32.60;115900.28;5068247;28;20465;-87
2023/09/06 09:23:52;;;;;;;9.10;3.25;;;;;;;-142.57;32.10;115900.28;5080077;28;20119;-86
2023/09/06 09:26:22;;;;;;;6.57;3.45;;;;;;;-142.57;32.67;115900.28;5082108;28;20025;-90
2023/09/06 09:28:49;;;;;;;9.95;3.70;;;;;;;-142.57;32.71;115900.28;5079959;28;20036;-89
2023/09/06 09:31:18;;;;;;;6.15;3.03;;;;;;;-142.57;32.42;115900.28;5084875;28;20115;-85
2023/09/06 09:33:49;;;;;;;7.70;3.22;;;;;;;-142.57;32.90;115900.28;5068729;28;20028;-86
2023/09/06 09:36:17;;;;;;;6.03;3.22;;;;;;;-142.57;32.91;115900.28;5067887;28;20046;-89
2023/09/06 09:38:49;;;;;;;4.53;2.85;;;;;;;-142.57;32.48;115900.28;5085778;28;20124;-87
2023/09/06 09:41:15;;;;;;;11.13;3.05;;;;;;;-142.57;31.64;115900.28;5079714;28;20025;-85
2023/09/06 09:43:41;;;;;;;10.70;3.33;;;;;;;-142.57;32.06;115900.28;5083096;28;20089;-86
2023/09/06 09:46:09;;;;;;;9.73;3.63;;;;;;;-142.57;32.89;115900.28;5048713;28;20056;-85
2023/09/06 09:48:36;;;;;;;10.27;3.75;;;;;;;-142.57;33.63;115900.28;5067318;28;20037;-86
2023/09/06 09:51:04;;;;;;;9.52;3.20;;;;;;;-142.57;33.26;115900.28;5074146;28;20040;-85
2023/09/06 09:53:32;;;;;;;8.70;3.10;;;;;;;-142.57;31.42;115900.28;5072520;28;20020;-87
2023/09/06 09:56:03;;;;;;;9.52;2.83;;;;;;;-142.57;31.91;115900.28;5073798;28;20005;-86
2023/09/06 09:58:33;;;;;;;;;;;;;;;-142.57;30.41;115900.28;5087295;28;20096;-88
2023/09/06 10:01:00;;;;;;;9.82;3.20;;;;;;;-142.57;30.53;115900.28;5058374;28;19939;-84
2023/09/06 10:03:30;;;;;;;11.38;3.47;;;;;;;-142.57;30.56;115900.28;5054635;28;20065;-83
2023/09/06 10:05:58;;;;;;;8.15;2.83;;;;;;;-142.57;30.81;115900.28;5079267;28;20036;-83
2023/09/06 10:08:25;;;;;;;11.38;2.60;;;;;;;-142.57;31.39;115900.28;5076404;28;20455;-84
2023/09/06 10:10:54;;;;;;;6.00;3.38;;;;;;;-142.57;31.17;115900.28;5059856;28;20044;-83
2023/09/06 10:13:26;;;;;;;9.50;3.00;;;;;;;-142.57;31.37;115900.28;5057627;28;20035;-84
2023/09/06 10:15:53;;;;;;;14.65;3.55;;;;;;;-142.57;30.93;115900.28;5075867;28;20047;-80
2023/09/06 10:18:18;;;;;;;6.53;3.38;;;;;;;-142.57;30.75;115900.28;5075057;28;20036;-83
2023/09/06 10:20:46;;;;;;;4.38;2.70;;;;;;;-142.57;29.81;115900.28;5075392;28;20029;-82
2023/09/06 10:23:12;;;;;;;7.60;2.85;;;;;;;-142.57;29.72;115900.28;5072415;28;20024;-82
2023/09/06 10:25:47;;;;;;;7.57;3.15;;;;;;;-142.57;29.55;115900.28;5072788;28;20029;-85
2023/09/06 10:28:14;;;;;;;4.60;2.90;;;;;;;-142.57;29.60;115900.28;5065859;28;20041;-85
2023/09/06 10:30:47;;;;;;;7.78;2.72;;;;;;;-142.57;29.12;115900.28;5072793;28;20060;-86
2023/09/06 10:33:42;;;;;;;5.43;2.75;;;;;;;-142.57;29.09;115900.28;5071440;28;20039;-83
2023/09/06 10:36:16;;;;;;;7.38;3.33;;;;;;;-142.57;29.66;115900.28;5072627;28;20036;-82
2023/09/06 10:38:50;;;;;;;8.50;3.28;;;;;;;-142.57;28.83;115900.28;5072626;28;20032;-85
2023/09/06 10:41:17;;;;;;;6.53;3.00;;;;;;;-142.57;28.25;115900.28;5053716;28;20043;-85
2023/09/06 10:43:58;;;;;;;6.28;2.85;;;;;;;-142.57;27.74;115900.28;5073624;28;20024;-83
2023/09/06 10:46:43;;;;;;;7.60;2.97;;;;;;;-142.57;28.26;115900.28;5070269;28;20028;-85
2023/09/06 10:49:12;;;;;;;12.38;3.15;;;;;;;-142.57;27.82;115900.28;5055259;28;20071;-87
2023/09/06 10:52:10;;;;;;;8.68;3.00;;;;;;;-142.57;28.18;115900.28;5037826;28;20435;-84
2023/09/06 10:54:44;;;;;;;6.53;2.80;;;;;;;-142.57;28.21;115900.28;5070577;28;20040;-84
2023/09/06 10:57:12;;;;;;;6.20;2.72;;;;;;;-142.57;28.44;115900.28;5051883;28;20387;-86
2023/09/06 10:59:45;;;;;;;18.23;3.35;;;;;;;-142.57;28.17;115900.28;5073285;28;20048;-85
2023/09/06 11:02:13;;;;;;;4.38;2.80;;;;;;;-142.57;28.55;115900.28;5071195;28;20025;-84
2023/09/06 11:04:39;;;;;;;4.82;2.55;;;;;;;-142.57;27.64;115900.28;5054996;28;20040;-86
2023/09/06 11:07:10;;;;;;;7.15;2.80;;;;;;;-142.57;27.14;115900.28;5054952;28;20033;-84
2023/09/06 11:09:50;;;;;;;4.70;2.80;;;;;;;-142.57;27.41;115900.28;5058353;28;20044;-88
2023/09/06 11:12:17;;;;;;;6.50;3.05;;;;;;;-142.57;27.60;115900.28;5042741;28;20124;-87
2023/09/06 11:14:47;;;;;;;8.13;2.80;;;;;;;-142.57;28.08;115900.28;5058492;28;20060;-83